sensor_id;sensor_type;location;lat;lon;timestamp;P1;durP1;ratioP1;P2;durP2;ratioP2
10977;SDS011;5542;48.272;10.794;2022-07-06T00:01:47;1.10;;;1.10;;
10977;SDS011;5542;48.272;10.794;2022-07-06T00:04:15;1.13;;;1.13;;
10977;SDS011;5542;48.272;10.794;2022-07-06T00:06:42;0.98;;;0.98;;
10977;SDS011;5542;48.272;10.794;2022-07-06T00:09:09;0.80;;;0.80;;
10977;SDS011;5542;48.272;10.794;2022-07-06T00:11:36;0.88;;;0.88;;
10977;SDS011;5542;48.272;10.794;2022-07-06T00:14:04;0.90;;;0.90;;
10977;SDS011;5542;48.272;10.794;2022-07-06T00:16:31;0.90;;;0.90;;
10977;SDS011;5542;48.272;10.794;2022-07-06T00:18:58;0.93;;;0.93;;
10977;SDS011;5542;48.272;10.794;2022-07-06T00:21:25;1.10;;;1.10;;
10977;SDS011;5542;48.272;10.794;2022-07-06T00:23:51;1.35;;;1.30;;
10977;SDS011;5542;48.272;10.794;2022-07-06T00:26:18;1.40;;;1.40;;
10977;SDS011;5542;48.272;10.794;2022-07-06T00:28:44;1.60;;;1.50;;
10977;SDS011;5542;48.272;10.794;2022-07-06T00:31:12;1.90;;;1.80;;
10977;SDS011;5542;48.272;10.794;2022-07-06T00:33:39;1.60;;;1.50;;
10977;SDS011;5542;48.272;10.794;2022-07-06T00:36:06;1.95;;;1.75;;
10977;SDS011;5542;48.272;10.794;2022-07-06T00:38:32;1.17;;;1.17;;
10977;SDS011;5542;48.272;10.794;2022-07-06T00:40:59;1.30;;;1.30;;
10977;SDS011;5542;48.272;10.794;2022-07-06T00:43:26;1.20;;;1.20;;
10977;SDS011;5542;48.272;10.794;2022-07-06T00:45:53;0.90;;;0.90;;
10977;SDS011;5542;48.272;10.794;2022-07-06T00:48:21;1.30;;;1.30;;
10977;SDS011;5542;48.272;10.794;2022-07-06T00:50:47;1.60;;;1.45;;
10977;SDS011;5542;48.272;10.794;2022-07-06T00:53:14;1.30;;;1.30;;
10977;SDS011;5542;48.272;10.794;2022-07-06T00:55:41;1.80;;;1.70;;
10977;SDS011;5542;48.272;10.794;2022-07-06T00:58:08;1.20;;;1.20;;
10977;SDS011;5542;48.272;10.794;2022-07-06T01:00:35;1.27;;;1.27;;
10977;SDS011;5542;48.272;10.794;2022-07-06T01:03:02;1.20;;;1.20;;
10977;SDS011;5542;48.272;10.794;2022-07-06T01:05:30;1.38;;;1.30;;
10977;SDS011;5542;48.272;10.794;2022-07-06T01:07:57;1.67;;;1.67;;
10977;SDS011;5542;48.272;10.794;2022-07-06T01:10:26;1.40;;;1.40;;
10977;SDS011;5542;48.272;10.794;2022-07-06T01:12:52;1.23;;;1.23;;
10977;SDS011;5542;48.272;10.794;2022-07-06T01:15:21;1.88;;;1.77;;
10977;SDS011;5542;48.272;10.794;2022-07-06T01:17:49;1.60;;;1.50;;
10977;SDS011;5542;48.272;10.794;2022-07-06T01:20:18;1.35;;;1.35;;
10977;SDS011;5542;48.272;10.794;2022-07-06T01:22:46;1.17;;;1.17;;
10977;SDS011;5542;48.272;10.794;2022-07-06T01:25:14;1.65;;;1.33;;
10977;SDS011;5542;48.272;10.794;2022-07-06T01:27:41;1.30;;;1.30;;
10977;SDS011;5542;48.272;10.794;2022-07-06T01:30:11;1.50;;;1.50;;
10977;SDS011;5542;48.272;10.794;2022-07-06T01:32:39;1.50;;;1.45;;
10977;SDS011;5542;48.272;10.794;2022-07-06T01:35:07;1.60;;;1.50;;
10977;SDS011;5542;48.272;10.794;2022-07-06T01:37:36;1.35;;;1.30;;
10977;SDS011;5542;48.272;10.794;2022-07-06T01:40:04;1.30;;;1.30;;
10977;SDS011;5542;48.272;10.794;2022-07-06T01:42:32;1.60;;;1.50;;
10977;SDS011;5542;48.272;10.794;2022-07-06T01:45:00;1.23;;;1.23;;
10977;SDS011;5542;48.272;10.794;2022-07-06T01:47:27;1.20;;;1.20;;
10977;SDS011;5542;48.272;10.794;2022-07-06T01:49:54;1.80;;;1.70;;
10977;SDS011;5542;48.272;10.794;2022-07-06T01:52:20;1.30;;;1.30;;
10977;SDS011;5542;48.272;10.794;2022-07-06T01:54:48;1.55;;;1.33;;
10977;SDS011;5542;48.272;10.794;2022-07-06T01:57:15;1.20;;;1.20;;
10977;SDS011;5542;48.272;10.794;2022-07-06T01:59:42;1.17;;;1.17;;
10977;SDS011;5542;48.272;10.794;2022-07-06T02:02:08;1.17;;;1.17;;
10977;SDS011;5542;48.272;10.794;2022-07-06T02:04:36;1.10;;;1.10;;
10977;SDS011;5542;48.272;10.794;2022-07-06T02:07:03;1.30;;;1.30;;
10977;SDS011;5542;48.272;10.794;2022-07-06T02:09:29;0.95;;;0.95;;
10977;SDS011;5542;48.272;10.794;2022-07-06T02:11:57;1.13;;;1.13;;
10977;SDS011;5542;48.272;10.794;2022-07-06T02:14:24;1.15;;;1.15;;
10977;SDS011;5542;48.272;10.794;2022-07-06T02:16:57;1.02;;;1.02;;
10977;SDS011;5542;48.272;10.794;2022-07-06T02:19:24;1.00;;;1.00;;
10977;SDS011;5542;48.272;10.794;2022-07-06T02:21:50;1.10;;;1.10;;
10977;SDS011;5542;48.272;10.794;2022-07-06T02:24:17;1.00;;;1.00;;
10977;SDS011;5542;48.272;10.794;2022-07-06T02:26:43;1.00;;;1.00;;
10977;SDS011;5542;48.272;10.794;2022-07-06T02:29:11;0.98;;;0.98;;
10977;SDS011;5542;48.272;10.794;2022-07-06T02:31:38;1.10;;;1.10;;
10977;SDS011;5542;48.272;10.794;2022-07-06T02:34:05;1.00;;;1.00;;
10977;SDS011;5542;48.272;10.794;2022-07-06T02:36:32;1.50;;;1.40;;
10977;SDS011;5542;48.272;10.794;2022-07-06T02:38:58;2.00;;;1.90;;
10977;SDS011;5542;48.272;10.794;2022-07-06T02:41:26;1.05;;;1.05;;
10977;SDS011;5542;48.272;10.794;2022-07-06T02:43:52;1.20;;;1.20;;
10977;SDS011;5542;48.272;10.794;2022-07-06T02:46:20;1.00;;;1.00;;
10977;SDS011;5542;48.272;10.794;2022-07-06T02:48:47;1.85;;;1.30;;
10977;SDS011;5542;48.272;10.794;2022-07-06T02:51:14;1.00;;;1.00;;
10977;SDS011;5542;48.272;10.794;2022-07-06T02:53:40;1.38;;;1.38;;
10977;SDS011;5542;48.272;10.794;2022-07-06T02:56:07;1.20;;;1.20;;
10977;SDS011;5542;48.272;10.794;2022-07-06T02:58:34;1.25;;;1.25;;
10977;SDS011;5542;48.272;10.794;2022-07-06T03:01:00;1.10;;;1.10;;
10977;SDS011;5542;48.272;10.794;2022-07-06T03:03:28;1.65;;;1.55;;
10977;SDS011;5542;48.272;10.794;2022-07-06T03:05:55;1.33;;;1.33;;
10977;SDS011;5542;48.272;10.794;2022-07-06T03:08:22;1.60;;;1.50;;
10977;SDS011;5542;48.272;10.794;2022-07-06T03:10:48;1.83;;;1.60;;
10977;SDS011;5542;48.272;10.794;2022-07-06T03:13:15;1.27;;;1.27;;
10977;SDS011;5542;48.272;10.794;2022-07-06T03:15:42;1.30;;;1.30;;
10977;SDS011;5542;48.272;10.794;2022-07-06T03:18:08;1.40;;;1.40;;
10977;SDS011;5542;48.272;10.794;2022-07-06T03:20:36;1.27;;;1.27;;
10977;SDS011;5542;48.272;10.794;2022-07-06T03:23:03;1.00;;;1.00;;
10977;SDS011;5542;48.272;10.794;2022-07-06T03:25:30;1.10;;;1.10;;
10977;SDS011;5542;48.272;10.794;2022-07-06T03:27:57;1.05;;;1.05;;
10977;SDS011;5542;48.272;10.794;2022-07-06T03:30:24;1.17;;;1.17;;
10977;SDS011;5542;48.272;10.794;2022-07-06T03:32:51;1.20;;;1.20;;
10977;SDS011;5542;48.272;10.794;2022-07-06T03:35:18;1.52;;;1.42;;
10977;SDS011;5542;48.272;10.794;2022-07-06T03:37:46;1.33;;;1.33;;
10977;SDS011;5542;48.272;10.794;2022-07-06T03:40:13;1.48;;;1.48;;
10977;SDS011;5542;48.272;10.794;2022-07-06T03:42:40;1.30;;;1.20;;
10977;SDS011;5542;48.272;10.794;2022-07-06T03:45:07;1.13;;;1.13;;
10977;SDS011;5542;48.272;10.794;2022-07-06T03:47:35;1.30;;;1.30;;
10977;SDS011;5542;48.272;10.794;2022-07-06T03:50:01;1.35;;;1.35;;
10977;SDS011;5542;48.272;10.794;2022-07-06T03:52:28;2.10;;;1.10;;
10977;SDS011;5542;48.272;10.794;2022-07-06T03:54:56;1.10;;;1.10;;
10977;SDS011;5542;48.272;10.794;2022-07-06T03:57:23;1.27;;;1.23;;
10977;SDS011;5542;48.272;10.794;2022-07-06T03:59:51;1.10;;;1.10;;
10977;SDS011;5542;48.272;10.794;2022-07-06T04:02:17;1.05;;;1.05;;
10977;SDS011;5542;48.272;10.794;2022-07-06T04:04:44;1.20;;;1.20;;
10977;SDS011;5542;48.272;10.794;2022-07-06T04:07:11;1.00;;;1.00;;
10977;SDS011;5542;48.272;10.794;2022-07-06T04:09:37;1.30;;;1.30;;
10977;SDS011;5542;48.272;10.794;2022-07-06T04:12:06;1.10;;;1.10;;
10977;SDS011;5542;48.272;10.794;2022-07-06T04:14:33;1.27;;;1.20;;
10977;SDS011;5542;48.272;10.794;2022-07-06T04:17:00;1.30;;;1.20;;
10977;SDS011;5542;48.272;10.794;2022-07-06T04:19:47;1.13;;;1.13;;
10977;SDS011;5542;48.272;10.794;2022-07-06T04:22:14;1.25;;;1.25;;
10977;SDS011;5542;48.272;10.794;2022-07-06T04:24:41;1.00;;;1.00;;
10977;SDS011;5542;48.272;10.794;2022-07-06T04:27:09;1.00;;;1.00;;
10977;SDS011;5542;48.272;10.794;2022-07-06T04:29:36;1.35;;;1.25;;
10977;SDS011;5542;48.272;10.794;2022-07-06T04:32:03;1.05;;;1.05;;
10977;SDS011;5542;48.272;10.794;2022-07-06T04:34:30;1.42;;;1.42;;
10977;SDS011;5542;48.272;10.794;2022-07-06T04:37:00;1.50;;;1.50;;
10977;SDS011;5542;48.272;10.794;2022-07-06T04:39:26;1.43;;;1.43;;
10977;SDS011;5542;48.272;10.794;2022-07-06T04:41:55;1.30;;;1.30;;
10977;SDS011;5542;48.272;10.794;2022-07-06T04:44:24;1.63;;;1.57;;
10977;SDS011;5542;48.272;10.794;2022-07-06T04:46:50;2.85;;;1.70;;
10977;SDS011;5542;48.272;10.794;2022-07-06T04:49:17;1.58;;;1.58;;
10977;SDS011;5542;48.272;10.794;2022-07-06T04:51:43;1.45;;;1.45;;
10977;SDS011;5542;48.272;10.794;2022-07-06T04:54:10;1.60;;;1.60;;
10977;SDS011;5542;48.272;10.794;2022-07-06T04:56:36;1.90;;;1.80;;
10977;SDS011;5542;48.272;10.794;2022-07-06T04:59:03;1.67;;;1.60;;
10977;SDS011;5542;48.272;10.794;2022-07-06T05:01:31;1.77;;;1.67;;
10977;SDS011;5542;48.272;10.794;2022-07-06T05:03:57;1.47;;;1.47;;
10977;SDS011;5542;48.272;10.794;2022-07-06T05:06:24;1.40;;;1.40;;
10977;SDS011;5542;48.272;10.794;2022-07-06T05:08:50;1.90;;;1.80;;
10977;SDS011;5542;48.272;10.794;2022-07-06T05:11:17;2.00;;;1.90;;
10977;SDS011;5542;48.272;10.794;2022-07-06T05:13:44;1.42;;;1.42;;
10977;SDS011;5542;48.272;10.794;2022-07-06T05:16:10;2.35;;;2.00;;
10977;SDS011;5542;48.272;10.794;2022-07-06T05:18:38;1.77;;;1.67;;
10977;SDS011;5542;48.272;10.794;2022-07-06T05:21:04;1.30;;;1.30;;
10977;SDS011;5542;48.272;10.794;2022-07-06T05:23:31;1.70;;;1.60;;
10977;SDS011;5542;48.272;10.794;2022-07-06T05:25:58;2.08;;;1.80;;
10977;SDS011;5542;48.272;10.794;2022-07-06T05:28:24;1.70;;;1.60;;
10977;SDS011;5542;48.272;10.794;2022-07-06T05:30:51;1.77;;;1.67;;
10977;SDS011;5542;48.272;10.794;2022-07-06T05:33:17;1.75;;;1.65;;
10977;SDS011;5542;48.272;10.794;2022-07-06T05:35:45;1.60;;;1.60;;
10977;SDS011;5542;48.272;10.794;2022-07-06T05:38:12;2.60;;;1.70;;
10977;SDS011;5542;48.272;10.794;2022-07-06T05:40:38;2.33;;;2.13;;
10977;SDS011;5542;48.272;10.794;2022-07-06T05:43:05;2.33;;;2.22;;
10977;SDS011;5542;48.272;10.794;2022-07-06T05:45:32;2.10;;;2.00;;
10977;SDS011;5542;48.272;10.794;2022-07-06T05:47:58;2.35;;;2.20;;
10977;SDS011;5542;48.272;10.794;2022-07-06T05:50:42;3.53;;;2.00;;
10977;SDS011;5542;48.272;10.794;2022-07-06T05:53:10;1.90;;;1.80;;
10977;SDS011;5542;48.272;10.794;2022-07-06T05:55:37;2.15;;;1.98;;
10977;SDS011;5542;48.272;10.794;2022-07-06T05:58:03;2.22;;;2.13;;
10977;SDS011;5542;48.272;10.794;2022-07-06T06:00:30;2.08;;;1.98;;
10977;SDS011;5542;48.272;10.794;2022-07-06T06:02:57;2.40;;;2.20;;
10977;SDS011;5542;48.272;10.794;2022-07-06T06:05:25;1.95;;;1.85;;
10977;SDS011;5542;48.272;10.794;2022-07-06T06:07:51;1.73;;;1.63;;
10977;SDS011;5542;48.272;10.794;2022-07-06T06:10:20;1.80;;;1.70;;
10977;SDS011;5542;48.272;10.794;2022-07-06T06:12:48;1.98;;;1.88;;
10977;SDS011;5542;48.272;10.794;2022-07-06T06:15:15;1.83;;;1.73;;
10977;SDS011;5542;48.272;10.794;2022-07-06T06:17:42;1.73;;;1.63;;
10977;SDS011;5542;48.272;10.794;2022-07-06T06:20:09;1.83;;;1.73;;
10977;SDS011;5542;48.272;10.794;2022-07-06T06:22:44;1.70;;;1.60;;
10977;SDS011;5542;48.272;10.794;2022-07-06T06:25:12;2.03;;;1.92;;
10977;SDS011;5542;48.272;10.794;2022-07-06T06:27:40;1.77;;;1.67;;
10977;SDS011;5542;48.272;10.794;2022-07-06T06:30:07;2.03;;;1.92;;
10977;SDS011;5542;48.272;10.794;2022-07-06T06:32:34;1.80;;;1.73;;
10977;SDS011;5542;48.272;10.794;2022-07-06T06:35:01;2.30;;;2.20;;
10977;SDS011;5542;48.272;10.794;2022-07-06T06:37:27;1.95;;;1.80;;
10977;SDS011;5542;48.272;10.794;2022-07-06T06:39:54;2.00;;;1.90;;
10977;SDS011;5542;48.272;10.794;2022-07-06T06:42:20;1.80;;;1.70;;
10977;SDS011;5542;48.272;10.794;2022-07-06T06:44:48;2.05;;;1.95;;
10977;SDS011;5542;48.272;10.794;2022-07-06T06:47:15;2.20;;;2.10;;
10977;SDS011;5542;48.272;10.794;2022-07-06T06:49:41;2.10;;;2.00;;
10977;SDS011;5542;48.272;10.794;2022-07-06T06:52:08;2.38;;;2.17;;
10977;SDS011;5542;48.272;10.794;2022-07-06T06:54:34;2.03;;;1.92;;
10977;SDS011;5542;48.272;10.794;2022-07-06T06:57:01;2.17;;;2.08;;
10977;SDS011;5542;48.272;10.794;2022-07-06T06:59:28;2.10;;;2.00;;
10977;SDS011;5542;48.272;10.794;2022-07-06T07:01:56;1.98;;;1.88;;
10977;SDS011;5542;48.272;10.794;2022-07-06T07:04:22;2.20;;;2.00;;
10977;SDS011;5542;48.272;10.794;2022-07-06T07:06:49;2.10;;;2.00;;
10977;SDS011;5542;48.272;10.794;2022-07-06T07:09:16;2.13;;;2.03;;
10977;SDS011;5542;48.272;10.794;2022-07-06T07:11:42;2.38;;;1.90;;
10977;SDS011;5542;48.272;10.794;2022-07-06T07:14:09;2.22;;;2.03;;
10977;SDS011;5542;48.272;10.794;2022-07-06T07:16:35;1.92;;;1.83;;
10977;SDS011;5542;48.272;10.794;2022-07-06T07:19:03;3.20;;;2.17;;
10977;SDS011;5542;48.272;10.794;2022-07-06T07:21:30;2.22;;;2.00;;
10977;SDS011;5542;48.272;10.794;2022-07-06T07:23:57;2.50;;;2.30;;
10977;SDS011;5542;48.272;10.794;2022-07-06T07:26:23;1.98;;;1.88;;
10977;SDS011;5542;48.272;10.794;2022-07-06T07:28:50;2.47;;;2.20;;
10977;SDS011;5542;48.272;10.794;2022-07-06T07:31:16;2.50;;;2.15;;
10977;SDS011;5542;48.272;10.794;2022-07-06T07:33:43;2.28;;;2.17;;
10977;SDS011;5542;48.272;10.794;2022-07-06T07:36:11;2.75;;;2.13;;
10977;SDS011;5542;48.272;10.794;2022-07-06T07:38:37;2.20;;;2.10;;
10977;SDS011;5542;48.272;10.794;2022-07-06T07:41:04;1.98;;;1.88;;
10977;SDS011;5542;48.272;10.794;2022-07-06T07:43:31;2.60;;;2.40;;
10977;SDS011;5542;48.272;10.794;2022-07-06T07:45:57;2.03;;;1.90;;
10977;SDS011;5542;48.272;10.794;2022-07-06T07:48:24;2.10;;;1.90;;
10977;SDS011;5542;48.272;10.794;2022-07-06T07:50:51;2.13;;;2.03;;
10977;SDS011;5542;48.272;10.794;2022-07-06T07:53:19;2.22;;;2.10;;
10977;SDS011;5542;48.272;10.794;2022-07-06T07:55:45;1.90;;;1.80;;
10977;SDS011;5542;48.272;10.794;2022-07-06T07:58:12;2.60;;;2.15;;
10977;SDS011;5542;48.272;10.794;2022-07-06T08:00:38;2.10;;;2.00;;
10977;SDS011;5542;48.272;10.794;2022-07-06T08:03:05;2.10;;;2.00;;
10977;SDS011;5542;48.272;10.794;2022-07-06T08:05:31;2.35;;;2.20;;
10977;SDS011;5542;48.272;10.794;2022-07-06T08:07:58;2.20;;;2.10;;
10977;SDS011;5542;48.272;10.794;2022-07-06T08:10:26;2.13;;;2.03;;
10977;SDS011;5542;48.272;10.794;2022-07-06T08:12:52;2.10;;;2.00;;
10977;SDS011;5542;48.272;10.794;2022-07-06T08:15:19;2.15;;;2.05;;
10977;SDS011;5542;48.272;10.794;2022-07-06T08:17:46;2.03;;;1.88;;
10977;SDS011;5542;48.272;10.794;2022-07-06T08:20:12;2.00;;;1.90;;
10977;SDS011;5542;48.272;10.794;2022-07-06T08:22:39;2.20;;;2.05;;
10977;SDS011;5542;48.272;10.794;2022-07-06T08:25:07;2.15;;;2.05;;
10977;SDS011;5542;48.272;10.794;2022-07-06T08:27:36;2.00;;;1.90;;
10977;SDS011;5542;48.272;10.794;2022-07-06T08:30:03;2.03;;;1.92;;
10977;SDS011;5542;48.272;10.794;2022-07-06T08:32:30;2.10;;;2.00;;
10977;SDS011;5542;48.272;10.794;2022-07-06T08:34:57;1.65;;;1.60;;
10977;SDS011;5542;48.272;10.794;2022-07-06T08:37:23;2.08;;;1.98;;
10977;SDS011;5542;48.272;10.794;2022-07-06T08:39:50;2.30;;;2.10;;
10977;SDS011;5542;48.272;10.794;2022-07-06T08:42:16;2.47;;;2.15;;
10977;SDS011;5542;48.272;10.794;2022-07-06T08:44:45;2.15;;;2.05;;
10977;SDS011;5542;48.272;10.794;2022-07-06T08:47:12;2.28;;;2.17;;
10977;SDS011;5542;48.272;10.794;2022-07-06T08:49:41;2.15;;;2.05;;
10977;SDS011;5542;48.272;10.794;2022-07-06T08:52:09;2.20;;;2.10;;
10977;SDS011;5542;48.272;10.794;2022-07-06T08:54:37;2.33;;;2.08;;
10977;SDS011;5542;48.272;10.794;2022-07-06T08:57:04;2.00;;;1.90;;
10977;SDS011;5542;48.272;10.794;2022-07-06T08:59:31;2.28;;;2.17;;
10977;SDS011;5542;48.272;10.794;2022-07-06T09:02:00;2.30;;;2.20;;
10977;SDS011;5542;48.272;10.794;2022-07-06T09:04:28;3.38;;;2.03;;
10977;SDS011;5542;48.272;10.794;2022-07-06T09:06:57;1.88;;;1.77;;
10977;SDS011;5542;48.272;10.794;2022-07-06T09:09:24;2.13;;;2.03;;
10977;SDS011;5542;48.272;10.794;2022-07-06T09:11:51;2.38;;;2.28;;
10977;SDS011;5542;48.272;10.794;2022-07-06T09:14:18;2.20;;;2.10;;
10977;SDS011;5542;48.272;10.794;2022-07-06T09:16:45;2.33;;;2.22;;
10977;SDS011;5542;48.272;10.794;2022-07-06T09:19:16;2.60;;;2.40;;
10977;SDS011;5542;48.272;10.794;2022-07-06T09:21:43;2.17;;;2.07;;
10977;SDS011;5542;48.272;10.794;2022-07-06T09:24:11;2.25;;;2.15;;
10977;SDS011;5542;48.272;10.794;2022-07-06T09:26:39;2.47;;;2.28;;
10977;SDS011;5542;48.272;10.794;2022-07-06T09:29:07;2.20;;;2.00;;
10977;SDS011;5542;48.272;10.794;2022-07-06T09:31:33;2.10;;;2.00;;
10977;SDS011;5542;48.272;10.794;2022-07-06T09:34:01;2.08;;;1.98;;
10977;SDS011;5542;48.272;10.794;2022-07-06T09:36:41;2.10;;;2.00;;
10977;SDS011;5542;48.272;10.794;2022-07-06T09:39:20;2.35;;;2.17;;
10977;SDS011;5542;48.272;10.794;2022-07-06T09:41:49;2.13;;;2.03;;
10977;SDS011;5542;48.272;10.794;2022-07-06T09:44:23;2.28;;;2.17;;
10977;SDS011;5542;48.272;10.794;2022-07-06T09:46:51;2.40;;;2.20;;
10977;SDS011;5542;48.272;10.794;2022-07-06T09:49:19;2.30;;;2.20;;
10977;SDS011;5542;48.272;10.794;2022-07-06T09:51:48;1.95;;;1.85;;
10977;SDS011;5542;48.272;10.794;2022-07-06T09:54:17;2.20;;;2.10;;
10977;SDS011;5542;48.272;10.794;2022-07-06T09:56:45;2.20;;;2.10;;
10977;SDS011;5542;48.272;10.794;2022-07-06T09:59:16;2.40;;;2.20;;
10977;SDS011;5542;48.272;10.794;2022-07-06T10:01:43;2.10;;;2.00;;
10977;SDS011;5542;48.272;10.794;2022-07-06T10:04:11;1.98;;;1.88;;
10977;SDS011;5542;48.272;10.794;2022-07-06T10:06:39;2.10;;;1.70;;
10977;SDS011;5542;48.272;10.794;2022-07-06T10:09:08;2.55;;;2.35;;
10977;SDS011;5542;48.272;10.794;2022-07-06T10:11:37;1.80;;;1.70;;
10977;SDS011;5542;48.272;10.794;2022-07-06T10:14:05;2.08;;;1.98;;
10977;SDS011;5542;48.272;10.794;2022-07-06T10:16:33;2.40;;;2.30;;
10977;SDS011;5542;48.272;10.794;2022-07-06T10:19:02;2.13;;;2.00;;
10977;SDS011;5542;48.272;10.794;2022-07-06T10:21:31;2.25;;;2.15;;
10977;SDS011;5542;48.272;10.794;2022-07-06T10:23:58;2.83;;;1.90;;
10977;SDS011;5542;48.272;10.794;2022-07-06T10:26:28;2.28;;;2.13;;
10977;SDS011;5542;48.272;10.794;2022-07-06T10:28:55;2.35;;;2.15;;
10977;SDS011;5542;48.272;10.794;2022-07-06T10:31:24;2.20;;;2.10;;
10977;SDS011;5542;48.272;10.794;2022-07-06T10:33:53;2.17;;;2.08;;
10977;SDS011;5542;48.272;10.794;2022-07-06T10:36:21;2.13;;;1.93;;
10977;SDS011;5542;48.272;10.794;2022-07-06T10:38:49;2.30;;;2.20;;
10977;SDS011;5542;48.272;10.794;2022-07-06T10:41:17;2.00;;;1.90;;
10977;SDS011;5542;48.272;10.794;2022-07-06T10:46:15;2.10;;;2.00;;
10977;SDS011;5542;48.272;10.794;2022-07-06T10:48:45;2.03;;;1.92;;
10977;SDS011;5542;48.272;10.794;2022-07-06T10:51:22;2.58;;;2.10;;
10977;SDS011;5542;48.272;10.794;2022-07-06T10:53:54;2.20;;;2.10;;
10977;SDS011;5542;48.272;10.794;2022-07-06T10:56:31;1.92;;;1.83;;
10977;SDS011;5542;48.272;10.794;2022-07-06T10:59:01;2.10;;;1.90;;
10977;SDS011;5542;48.272;10.794;2022-07-06T11:01:30;2.20;;;2.00;;
10977;SDS011;5542;48.272;10.794;2022-07-06T11:04:06;2.13;;;2.03;;
10977;SDS011;5542;48.272;10.794;2022-07-06T11:06:36;1.90;;;1.80;;
10977;SDS011;5542;48.272;10.794;2022-07-06T11:09:06;2.20;;;2.00;;
10977;SDS011;5542;48.272;10.794;2022-07-06T11:11:40;2.10;;;2.00;;
10977;SDS011;5542;48.272;10.794;2022-07-06T11:14:11;2.17;;;2.08;;
10977;SDS011;5542;48.272;10.794;2022-07-06T11:19:30;2.20;;;2.10;;
10977;SDS011;5542;48.272;10.794;2022-07-06T11:21:57;2.00;;;1.90;;
10977;SDS011;5542;48.272;10.794;2022-07-06T11:24:31;2.10;;;2.00;;
10977;SDS011;5542;48.272;10.794;2022-07-06T11:26:59;2.22;;;2.05;;
10977;SDS011;5542;48.272;10.794;2022-07-06T11:29:27;2.83;;;1.90;;
10977;SDS011;5542;48.272;10.794;2022-07-06T11:31:55;2.08;;;1.98;;
10977;SDS011;5542;48.272;10.794;2022-07-06T11:34:25;1.83;;;1.73;;
10977;SDS011;5542;48.272;10.794;2022-07-06T11:36:55;2.07;;;1.97;;
10977;SDS011;5542;48.272;10.794;2022-07-06T11:39:26;2.30;;;2.13;;
10977;SDS011;5542;48.272;10.794;2022-07-06T11:41:53;2.25;;;2.05;;
10977;SDS011;5542;48.272;10.794;2022-07-06T11:44:20;2.38;;;2.20;;
10977;SDS011;5542;48.272;10.794;2022-07-06T11:46:47;2.25;;;2.00;;
10977;SDS011;5542;48.272;10.794;2022-07-06T11:49:14;2.15;;;2.05;;
10977;SDS011;5542;48.272;10.794;2022-07-06T11:51:44;2.10;;;2.00;;
10977;SDS011;5542;48.272;10.794;2022-07-06T11:54:13;1.83;;;1.73;;
10977;SDS011;5542;48.272;10.794;2022-07-06T11:56:45;2.00;;;1.90;;
10977;SDS011;5542;48.272;10.794;2022-07-06T11:59:12;2.40;;;2.20;;
10977;SDS011;5542;48.272;10.794;2022-07-06T12:01:41;2.20;;;2.10;;
10977;SDS011;5542;48.272;10.794;2022-07-06T12:04:09;1.98;;;1.88;;
10977;SDS011;5542;48.272;10.794;2022-07-06T12:06:37;2.10;;;1.90;;
10977;SDS011;5542;48.272;10.794;2022-07-06T12:09:05;2.17;;;2.08;;
10977;SDS011;5542;48.272;10.794;2022-07-06T12:11:32;1.75;;;1.70;;
10977;SDS011;5542;48.272;10.794;2022-07-06T12:14:00;2.03;;;1.92;;
10977;SDS011;5542;48.272;10.794;2022-07-06T12:16:28;1.73;;;1.70;;
10977;SDS011;5542;48.272;10.794;2022-07-06T12:18:56;1.92;;;1.83;;
10977;SDS011;5542;48.272;10.794;2022-07-06T12:21:22;1.88;;;1.77;;
10977;SDS011;5542;48.272;10.794;2022-07-06T12:23:51;1.95;;;1.85;;
10977;SDS011;5542;48.272;10.794;2022-07-06T12:26:20;2.28;;;1.83;;
10977;SDS011;5542;48.272;10.794;2022-07-06T12:28:59;1.90;;;1.80;;
10977;SDS011;5542;48.272;10.794;2022-07-06T12:31:32;2.20;;;2.10;;
10977;SDS011;5542;48.272;10.794;2022-07-06T12:34:00;2.10;;;1.90;;
10977;SDS011;5542;48.272;10.794;2022-07-06T12:36:27;2.00;;;1.90;;
10977;SDS011;5542;48.272;10.794;2022-07-06T12:38:53;1.83;;;1.73;;
10977;SDS011;5542;48.272;10.794;2022-07-06T12:41:29;2.05;;;1.95;;
10977;SDS011;5542;48.272;10.794;2022-07-06T12:44:05;2.05;;;1.95;;
10977;SDS011;5542;48.272;10.794;2022-07-06T12:46:34;1.80;;;1.70;;
10977;SDS011;5542;48.272;10.794;2022-07-06T12:49:02;1.80;;;1.70;;
10977;SDS011;5542;48.272;10.794;2022-07-06T12:51:53;1.87;;;1.77;;
10977;SDS011;5542;48.272;10.794;2022-07-06T12:54:22;2.28;;;2.08;;
10977;SDS011;5542;48.272;10.794;2022-07-06T12:57:07;1.90;;;1.80;;
10977;SDS011;5542;48.272;10.794;2022-07-06T12:59:38;2.05;;;1.95;;
10977;SDS011;5542;48.272;10.794;2022-07-06T13:02:06;2.10;;;2.00;;
10977;SDS011;5542;48.272;10.794;2022-07-06T13:04:34;2.00;;;1.90;;
10977;SDS011;5542;48.272;10.794;2022-07-06T13:07:02;2.10;;;2.00;;
10977;SDS011;5542;48.272;10.794;2022-07-06T13:09:30;1.65;;;1.55;;
10977;SDS011;5542;48.272;10.794;2022-07-06T13:11:57;1.60;;;1.60;;
10977;SDS011;5542;48.272;10.794;2022-07-06T13:14:25;2.00;;;1.90;;
10977;SDS011;5542;48.272;10.794;2022-07-06T13:16:51;1.60;;;1.60;;
10977;SDS011;5542;48.272;10.794;2022-07-06T13:19:19;1.85;;;1.75;;
10977;SDS011;5542;48.272;10.794;2022-07-06T13:21:45;2.05;;;1.90;;
10977;SDS011;5542;48.272;10.794;2022-07-06T13:24:12;1.60;;;1.60;;
10977;SDS011;5542;48.272;10.794;2022-07-06T13:26:39;2.20;;;2.00;;
10977;SDS011;5542;48.272;10.794;2022-07-06T13:29:05;1.90;;;1.60;;
10977;SDS011;5542;48.272;10.794;2022-07-06T13:31:33;2.10;;;2.00;;
10977;SDS011;5542;48.272;10.794;2022-07-06T13:34:00;2.10;;;1.90;;
10977;SDS011;5542;48.272;10.794;2022-07-06T13:36:27;1.83;;;1.73;;
10977;SDS011;5542;48.272;10.794;2022-07-06T13:38:53;1.30;;;1.30;;
10977;SDS011;5542;48.272;10.794;2022-07-06T13:41:20;2.00;;;1.90;;
10977;SDS011;5542;48.272;10.794;2022-07-06T13:43:47;2.10;;;1.77;;
10977;SDS011;5542;48.272;10.794;2022-07-06T13:46:13;1.90;;;1.80;;
10977;SDS011;5542;48.272;10.794;2022-07-06T13:48:43;1.73;;;1.63;;
10977;SDS011;5542;48.272;10.794;2022-07-06T13:51:09;2.00;;;1.90;;
10977;SDS011;5542;48.272;10.794;2022-07-06T13:53:36;1.90;;;1.80;;
10977;SDS011;5542;48.272;10.794;2022-07-06T13:56:03;1.70;;;1.60;;
10977;SDS011;5542;48.272;10.794;2022-07-06T13:58:31;2.00;;;1.90;;
10977;SDS011;5542;48.272;10.794;2022-07-06T14:00:57;1.70;;;1.60;;
10977;SDS011;5542;48.272;10.794;2022-07-06T14:03:24;1.90;;;1.60;;
10977;SDS011;5542;48.272;10.794;2022-07-06T14:05:56;2.10;;;2.00;;
10977;SDS011;5542;48.272;10.794;2022-07-06T14:08:24;1.67;;;1.60;;
10977;SDS011;5542;48.272;10.794;2022-07-06T14:10:52;1.85;;;1.75;;
10977;SDS011;5542;48.272;10.794;2022-07-06T14:13:19;2.30;;;1.73;;
10977;SDS011;5542;48.272;10.794;2022-07-06T14:15:46;1.70;;;1.60;;
10977;SDS011;5542;48.272;10.794;2022-07-06T14:18:13;2.15;;;1.98;;
10977;SDS011;5542;48.272;10.794;2022-07-06T14:20:42;1.55;;;1.55;;
10977;SDS011;5542;48.272;10.794;2022-07-06T14:23:10;1.67;;;1.63;;
10977;SDS011;5542;48.272;10.794;2022-07-06T14:25:37;1.83;;;1.73;;
10977;SDS011;5542;48.272;10.794;2022-07-06T14:28:04;1.85;;;1.75;;
10977;SDS011;5542;48.272;10.794;2022-07-06T14:30:32;2.03;;;1.92;;
10977;SDS011;5542;48.272;10.794;2022-07-06T14:32:59;2.08;;;1.73;;
10977;SDS011;5542;48.272;10.794;2022-07-06T14:35:29;1.90;;;1.80;;
10977;SDS011;5542;48.272;10.794;2022-07-06T14:37:59;1.70;;;1.60;;
10977;SDS011;5542;48.272;10.794;2022-07-06T14:40:27;1.80;;;1.70;;
10977;SDS011;5542;48.272;10.794;2022-07-06T14:42:54;4.03;;;2.53;;
10977;SDS011;5542;48.272;10.794;2022-07-06T14:45:21;2.15;;;2.00;;
10977;SDS011;5542;48.272;10.794;2022-07-06T14:47:47;1.90;;;1.80;;
10977;SDS011;5542;48.272;10.794;2022-07-06T14:50:14;2.80;;;2.30;;
10977;SDS011;5542;48.272;10.794;2022-07-06T14:52:41;1.97;;;1.83;;
10977;SDS011;5542;48.272;10.794;2022-07-06T14:55:08;1.57;;;1.57;;
10977;SDS011;5542;48.272;10.794;2022-07-06T14:57:36;2.00;;;1.90;;